createdAt,value
2019-03-09T00:05:59.304Z,46.50
2019-03-09T00:12:44.299Z,46.10
2019-03-09T00:19:29.318Z,46.20
2019-03-09T00:26:15.886Z,46.40
2019-03-09T00:33:02.334Z,46.50
2019-03-09T00:39:47.347Z,46.30
2019-03-09T00:46:32.199Z,46.10
2019-03-09T00:53:18.189Z,46.10
2019-03-09T01:00:03.183Z,46.70
2019-03-09T01:06:49.471Z,46.50
2019-03-09T01:13:34.311Z,46.70
2019-03-09T01:20:19.223Z,47.20
2019-03-09T01:27:04.141Z,47.00
2019-03-09T01:33:49.062Z,46.80
2019-03-09T01:40:34.145Z,46.60
2019-03-09T01:47:19.107Z,46.90
2019-03-09T01:54:04.877Z,47.30
2019-03-09T02:00:50.007Z,47.90
2019-03-09T02:07:35.075Z,48.40
2019-03-09T02:14:20.071Z,48.70
2019-03-09T02:21:04.982Z,48.90
2019-03-09T02:27:49.827Z,49.40
2019-03-09T02:34:34.720Z,49.00
2019-03-09T02:41:19.709Z,49.20
2019-03-09T02:48:04.645Z,49.60
2019-03-09T02:54:49.629Z,50.40
2019-03-09T03:01:39.227Z,51.50
2019-03-09T03:08:24.077Z,51.60
2019-03-09T03:15:11.750Z,51.20
2019-03-09T03:21:56.668Z,50.80
2019-03-09T03:28:41.503Z,50.50
2019-03-09T03:35:26.427Z,50.20
2019-03-09T03:42:11.288Z,49.70
2019-03-09T03:48:56.203Z,49.90
2019-03-09T03:55:41.287Z,49.30
2019-03-09T04:02:26.135Z,49.30
2019-03-09T04:09:11.352Z,48.90
2019-03-09T04:15:58.725Z,49.00
2019-03-09T04:22:43.651Z,49.10
2019-03-09T04:29:28.730Z,48.80
2019-03-09T04:36:13.667Z,48.60
2019-03-09T04:42:58.803Z,47.80
2019-03-09T04:49:43.744Z,47.30
2019-03-09T04:56:28.660Z,46.90
2019-03-09T05:03:13.607Z,47.00
2019-03-09T05:10:19.301Z,47.60
2019-03-09T05:17:04.223Z,48.10
2019-03-09T05:23:49.102Z,48.70
2019-03-09T05:30:38.567Z,50.20
2019-03-09T05:37:24.990Z,51.80
2019-03-09T05:44:09.994Z,52.60
2019-03-09T05:50:54.975Z,54.00
2019-03-09T05:57:39.820Z,55.50
2019-03-09T06:04:24.662Z,55.90
2019-03-09T06:11:09.814Z,55.50
2019-03-09T06:17:54.666Z,56.20
2019-03-09T06:24:39.603Z,56.20
2019-03-09T06:31:24.526Z,57.00
2019-03-09T06:38:45.831Z,57.50
2019-03-09T06:45:30.688Z,57.20
2019-03-09T06:52:15.538Z,56.50
2019-03-09T06:59:00.399Z,54.80
2019-03-09T07:05:45.434Z,54.60
2019-03-09T07:12:30.471Z,54.30
2019-03-09T07:19:15.314Z,54.30
2019-03-09T07:26:00.459Z,52.00
2019-03-09T07:32:45.510Z,51.40
2019-03-09T07:39:30.466Z,50.50
2019-03-09T07:46:15.324Z,46.40
2019-03-09T07:53:00.243Z,40.40
2019-03-09T07:59:45.112Z,43.20
2019-03-09T08:06:29.963Z,46.00
2019-03-09T08:13:14.822Z,46.80
2019-03-09T08:20:00.894Z,47.60
2019-03-09T08:26:46.963Z,48.10
2019-03-09T08:33:31.824Z,48.00
2019-03-09T08:40:18.101Z,47.30
2019-03-09T08:47:03.020Z,47.30
2019-03-09T08:53:47.880Z,48.20
2019-03-09T09:00:33.697Z,48.20
2019-03-09T09:07:18.755Z,47.50
2019-03-09T09:14:03.747Z,46.70
2019-03-09T09:20:50.339Z,46.40
2019-03-09T09:27:35.232Z,45.40
2019-03-09T09:34:20.092Z,45.40
2019-03-09T09:41:04.949Z,42.90
2019-03-09T09:47:50.093Z,42.90
2019-03-09T09:54:35.019Z,44.10
2019-03-09T10:01:19.875Z,44.20
2019-03-09T10:08:04.898Z,44.00
2019-03-09T10:14:49.754Z,44.90
2019-03-09T10:21:34.610Z,44.40
2019-03-09T10:28:19.458Z,44.00
2019-03-09T10:35:05.459Z,44.10
2019-03-09T10:41:50.376Z,44.90
2019-03-09T10:48:35.227Z,44.30
2019-03-09T10:55:25.062Z,42.80
2019-03-09T11:02:10.150Z,42.70
2019-03-09T11:08:55.011Z,42.10
2019-03-09T11:15:40.841Z,42.60
2019-03-09T11:22:26.699Z,42.90
2019-03-09T11:29:11.756Z,43.20
2019-03-09T11:35:59.794Z,43.30
2019-03-09T11:42:45.080Z,43.00
2019-03-09T11:49:30.618Z,43.00
2019-03-09T11:56:15.594Z,42.30
2019-03-09T12:03:00.455Z,41.60
2019-03-09T12:09:45.337Z,42.40
2019-03-09T12:16:30.683Z,42.80
2019-03-09T12:23:21.346Z,43.20
2019-03-09T12:30:09.810Z,43.40
2019-03-09T12:36:54.936Z,43.10
2019-03-09T12:43:39.850Z,43.30
2019-03-09T12:50:25.038Z,43.30
2019-03-09T12:57:09.910Z,43.40
2019-03-09T13:03:55.908Z,42.80
2019-03-09T13:10:40.843Z,42.10
2019-03-09T13:17:26.139Z,41.80
2019-03-09T13:24:11.058Z,41.20
2019-03-09T13:30:55.928Z,41.20
2019-03-09T13:37:40.855Z,41.40
2019-03-09T13:44:25.714Z,41.80
2019-03-09T13:51:10.571Z,42.30
2019-03-09T13:57:55.433Z,42.40
2019-03-09T14:04:40.375Z,42.70
2019-03-09T14:11:25.299Z,44.20
2019-03-09T14:18:10.323Z,47.30
2019-03-09T14:24:55.211Z,48.50
2019-03-09T14:31:40.204Z,51.20
2019-03-09T14:38:25.064Z,51.80
2019-03-09T14:45:15.466Z,52.40
2019-03-09T14:52:00.997Z,51.70
2019-03-09T14:58:45.922Z,49.60
2019-03-09T15:05:31.227Z,49.40
2019-03-09T15:12:16.087Z,48.80
2019-03-09T15:19:01.167Z,47.40
2019-03-09T15:25:47.009Z,47.50
2019-03-09T15:32:32.072Z,47.40
2019-03-09T15:39:17.268Z,47.30
2019-03-09T15:46:02.199Z,47.90
2019-03-09T15:52:47.984Z,48.10
2019-03-09T15:59:33.662Z,49.20
2019-03-09T16:06:18.674Z,49.70
2019-03-09T16:13:03.525Z,50.50
2019-03-09T16:19:49.833Z,51.20
2019-03-09T16:26:35.718Z,51.40
2019-03-09T16:33:20.648Z,51.00
2019-03-09T16:40:08.727Z,50.10
2019-03-09T16:46:53.782Z,49.50
2019-03-09T16:53:38.969Z,49.30
2019-03-09T17:00:25.318Z,48.80
2019-03-09T17:07:10.411Z,49.00
2019-03-09T17:13:55.802Z,48.50
2019-03-09T17:20:41.717Z,48.90
2019-03-09T17:27:28.159Z,48.60
2019-03-09T17:34:13.131Z,48.40
2019-03-09T17:40:57.988Z,48.70
2019-03-09T17:47:43.055Z,48.50
2019-03-09T17:54:28.522Z,48.00
2019-03-09T18:01:13.579Z,47.80
2019-03-09T18:07:59.102Z,47.20
2019-03-09T18:14:44.084Z,46.90
2019-03-09T18:21:29.015Z,46.60
2019-03-09T18:28:13.947Z,46.70
2019-03-09T18:34:59.867Z,47.00
2019-03-09T18:41:45.799Z,47.30
2019-03-09T18:48:30.731Z,47.40
2019-03-09T18:55:16.340Z,47.60
2019-03-09T19:02:01.410Z,47.80
2019-03-09T19:08:47.721Z,47.30
2019-03-09T19:15:32.934Z,46.50
2019-03-09T19:22:18.106Z,45.50
2019-03-09T19:29:03.506Z,44.70
2019-03-09T19:35:49.334Z,44.40
2019-03-09T19:42:34.479Z,43.90
2019-03-09T19:49:20.236Z,43.60
2019-03-09T19:56:05.602Z,43.20
2019-03-09T20:02:51.037Z,43.10
2019-03-09T20:09:36.126Z,43.00
2019-03-09T20:16:21.194Z,42.90
2019-03-09T20:23:06.124Z,42.90
2019-03-09T20:29:51.382Z,42.80
2019-03-09T20:36:36.402Z,42.80
2019-03-09T20:43:21.739Z,42.70
2019-03-09T20:50:10.812Z,42.00
2019-03-09T20:56:55.923Z,42.00
2019-03-09T21:03:41.070Z,42.40
2019-03-09T21:10:26.071Z,42.60
2019-03-09T21:17:10.999Z,42.80
2019-03-09T21:23:56.004Z,42.90
2019-03-09T21:30:41.165Z,43.80
2019-03-09T21:37:26.907Z,46.10
2019-03-09T21:44:13.692Z,47.70
2019-03-09T21:50:58.662Z,48.40
2019-03-09T21:57:43.684Z,49.00
2019-03-09T22:04:28.667Z,49.40
2019-03-09T22:11:13.663Z,50.00
2019-03-09T22:17:58.771Z,51.10
2019-03-09T22:24:44.093Z,51.20
2019-03-09T22:31:28.960Z,50.70
2019-03-09T22:38:15.021Z,51.10
2019-03-09T22:45:00.355Z,51.30
2019-03-09T22:51:45.242Z,51.20
2019-03-09T22:58:30.107Z,51.10
2019-03-09T23:05:15.557Z,51.30
2019-03-09T23:12:00.539Z,51.70
2019-03-09T23:18:45.496Z,51.50
2019-03-09T23:25:30.351Z,51.40
2019-03-09T23:32:15.219Z,51.40
2019-03-09T23:39:00.218Z,51.50
2019-03-09T23:45:48.971Z,51.60
2019-03-09T23:52:34.248Z,51.50
2019-03-09T23:59:19.379Z,51.70
